sensor_id;sensor_type;location;lat;lon;timestamp;temperature;humidity
40816;DHT22;26535;48.788;9.214;2023-05-29T00:00:07;16.10;81.10
40816;DHT22;26535;48.788;9.214;2023-05-29T05:01:29;13.90;92.70
40816;DHT22;26535;48.788;9.214;2023-05-29T05:04:00;14.00;92.70
40816;DHT22;26535;48.788;9.214;2023-05-29T05:06:25;14.00;92.70
40816;DHT22;26535;48.788;9.214;2023-05-29T05:08:52;14.10;92.80
40816;DHT22;26535;48.788;9.214;2023-05-29T05:11:19;14.20;93.20
40816;DHT22;26535;48.788;9.214;2023-05-29T05:13:46;14.30;93.10
40816;DHT22;26535;48.788;9.214;2023-05-29T05:16:12;14.40;93.20
40816;DHT22;26535;48.788;9.214;2023-05-29T05:18:39;14.40;93.00
40816;DHT22;26535;48.788;9.214;2023-05-29T05:21:06;14.50;92.90
40816;DHT22;26535;48.788;9.214;2023-05-29T05:23:34;14.60;92.60
40816;DHT22;26535;48.788;9.214;2023-05-29T05:26:01;14.70;92.60
40816;DHT22;26535;48.788;9.214;2023-05-29T05:28:26;14.70;92.50
40816;DHT22;26535;48.788;9.214;2023-05-29T05:30:52;14.80;91.80
40816;DHT22;26535;48.788;9.214;2023-05-29T05:33:18;14.90;91.10
40816;DHT22;26535;48.788;9.214;2023-05-29T05:35:44;14.90;90.80
40816;DHT22;26535;48.788;9.214;2023-05-29T05:38:11;15.00;90.40
40816;DHT22;26535;48.788;9.214;2023-05-29T05:40:36;15.10;90.20
40816;DHT22;26535;48.788;9.214;2023-05-29T05:43:12;15.10;90.50
40816;DHT22;26535;48.788;9.214;2023-05-29T05:46:03;15.20;90.60
40816;DHT22;26535;48.788;9.214;2023-05-29T05:48:30;15.20;90.40
40816;DHT22;26535;48.788;9.214;2023-05-29T05:50:56;15.30;90.40
40816;DHT22;26535;48.788;9.214;2023-05-29T05:53:22;15.40;89.90
40816;DHT22;26535;48.788;9.214;2023-05-29T05:55:47;15.40;90.10
40816;DHT22;26535;48.788;9.214;2023-05-29T05:58:13;15.50;90.00
40816;DHT22;26535;48.788;9.214;2023-05-29T06:00:40;15.70;89.60
40816;DHT22;26535;48.788;9.214;2023-05-29T06:03:08;15.80;89.50
40816;DHT22;26535;48.788;9.214;2023-05-29T06:05:48;16.00;89.40
40816;DHT22;26535;48.788;9.214;2023-05-29T06:08:14;16.10;88.30
40816;DHT22;26535;48.788;9.214;2023-05-29T06:10:40;16.20;87.60
40816;DHT22;26535;48.788;9.214;2023-05-29T06:13:06;16.20;87.60
40816;DHT22;26535;48.788;9.214;2023-05-29T06:15:43;16.20;88.30
40816;DHT22;26535;48.788;9.214;2023-05-29T06:18:08;16.40;88.20
40816;DHT22;26535;48.788;9.214;2023-05-29T06:20:34;16.50;87.40
40816;DHT22;26535;48.788;9.214;2023-05-29T06:23:01;16.60;87.20
40816;DHT22;26535;48.788;9.214;2023-05-29T06:25:27;16.80;86.70
40816;DHT22;26535;48.788;9.214;2023-05-29T06:28:02;16.90;86.10
40816;DHT22;26535;48.788;9.214;2023-05-29T06:30:28;17.00;85.10
40816;DHT22;26535;48.788;9.214;2023-05-29T06:32:54;17.10;83.40
40816;DHT22;26535;48.788;9.214;2023-05-29T06:35:26;17.20;83.60
40816;DHT22;26535;48.788;9.214;2023-05-29T06:37:53;17.20;83.20
40816;DHT22;26535;48.788;9.214;2023-05-29T06:40:19;17.20;83.40
40816;DHT22;26535;48.788;9.214;2023-05-29T06:42:45;17.20;83.20
40816;DHT22;26535;48.788;9.214;2023-05-29T06:45:14;17.20;83.40
40816;DHT22;26535;48.788;9.214;2023-05-29T06:47:44;17.20;83.40
40816;DHT22;26535;48.788;9.214;2023-05-29T06:50:10;17.40;83.00
40816;DHT22;26535;48.788;9.214;2023-05-29T06:52:37;17.60;82.50
40816;DHT22;26535;48.788;9.214;2023-05-29T06:55:21;17.80;82.50
40816;DHT22;26535;48.788;9.214;2023-05-29T06:57:47;17.90;80.90
40816;DHT22;26535;48.788;9.214;2023-05-29T07:00:13;18.00;81.10
40816;DHT22;26535;48.788;9.214;2023-05-29T07:02:47;18.10;81.30
40816;DHT22;26535;48.788;9.214;2023-05-29T07:05:12;18.30;82.30
40816;DHT22;26535;48.788;9.214;2023-05-29T07:07:38;18.40;82.80
40816;DHT22;26535;48.788;9.214;2023-05-29T07:10:04;18.50;82.50
40816;DHT22;26535;48.788;9.214;2023-05-29T07:12:31;18.50;82.80
40816;DHT22;26535;48.788;9.214;2023-05-29T07:14:57;18.70;82.50
40816;DHT22;26535;48.788;9.214;2023-05-29T07:17:23;18.80;82.20
40816;DHT22;26535;48.788;9.214;2023-05-29T07:20:00;19.00;82.00
40816;DHT22;26535;48.788;9.214;2023-05-29T07:22:26;19.10;82.00
40816;DHT22;26535;48.788;9.214;2023-05-29T07:24:52;19.20;80.40
40816;DHT22;26535;48.788;9.214;2023-05-29T07:27:18;19.30;78.60
40816;DHT22;26535;48.788;9.214;2023-05-29T07:29:43;19.40;77.20
40816;DHT22;26535;48.788;9.214;2023-05-29T07:32:09;19.40;76.90
40816;DHT22;26535;48.788;9.214;2023-05-29T07:34:36;19.30;76.70
40816;DHT22;26535;48.788;9.214;2023-05-29T07:37:06;19.50;77.40
40816;DHT22;26535;48.788;9.214;2023-05-29T07:39:34;19.50;76.90
40816;DHT22;26535;48.788;9.214;2023-05-29T07:42:05;19.60;76.20
40816;DHT22;26535;48.788;9.214;2023-05-29T07:44:32;19.60;75.70
40816;DHT22;26535;48.788;9.214;2023-05-29T07:46:58;19.70;74.80
40816;DHT22;26535;48.788;9.214;2023-05-29T07:49:45;19.70;74.40
40816;DHT22;26535;48.788;9.214;2023-05-29T07:52:11;19.80;75.00
40816;DHT22;26535;48.788;9.214;2023-05-29T07:54:37;19.90;74.40
40816;DHT22;26535;48.788;9.214;2023-05-29T07:57:04;19.90;74.00
40816;DHT22;26535;48.788;9.214;2023-05-29T07:59:37;20.10;73.50
40816;DHT22;26535;48.788;9.214;2023-05-29T08:02:04;20.10;74.30
40816;DHT22;26535;48.788;9.214;2023-05-29T08:04:49;20.30;73.80
40816;DHT22;26535;48.788;9.214;2023-05-29T08:07:15;20.30;72.90
40816;DHT22;26535;48.788;9.214;2023-05-29T08:09:40;20.30;73.00
40816;DHT22;26535;48.788;9.214;2023-05-29T08:12:06;20.40;72.60
40816;DHT22;26535;48.788;9.214;2023-05-29T08:14:32;20.40;73.40
40816;DHT22;26535;48.788;9.214;2023-05-29T08:17:01;20.60;72.60
40816;DHT22;26535;48.788;9.214;2023-05-29T08:19:26;20.80;72.20
40816;DHT22;26535;48.788;9.214;2023-05-29T08:21:52;20.80;73.40
40816;DHT22;26535;48.788;9.214;2023-05-29T08:24:17;20.90;72.50
40816;DHT22;26535;48.788;9.214;2023-05-29T08:26:43;21.00;71.90
40816;DHT22;26535;48.788;9.214;2023-05-29T08:29:09;21.00;71.80
40816;DHT22;26535;48.788;9.214;2023-05-29T08:31:36;21.00;72.20
40816;DHT22;26535;48.788;9.214;2023-05-29T08:34:02;21.00;72.40
40816;DHT22;26535;48.788;9.214;2023-05-29T08:36:28;21.20;72.40
40816;DHT22;26535;48.788;9.214;2023-05-29T08:38:54;21.20;72.50
40816;DHT22;26535;48.788;9.214;2023-05-29T08:41:37;21.30;72.80
40816;DHT22;26535;48.788;9.214;2023-05-29T08:44:06;21.40;71.80
40816;DHT22;26535;48.788;9.214;2023-05-29T08:46:33;21.40;71.80
40816;DHT22;26535;48.788;9.214;2023-05-29T08:49:01;21.40;71.80
40816;DHT22;26535;48.788;9.214;2023-05-29T08:51:31;21.50;72.40
40816;DHT22;26535;48.788;9.214;2023-05-29T08:53:58;21.60;72.20
40816;DHT22;26535;48.788;9.214;2023-05-29T08:56:24;21.70;72.70
40816;DHT22;26535;48.788;9.214;2023-05-29T08:58:49;21.80;72.60
40816;DHT22;26535;48.788;9.214;2023-05-29T09:01:17;21.80;72.00
40816;DHT22;26535;48.788;9.214;2023-05-29T09:03:43;21.80;72.70
40816;DHT22;26535;48.788;9.214;2023-05-29T09:06:08;22.00;72.30
40816;DHT22;26535;48.788;9.214;2023-05-29T09:08:35;22.20;72.50
40816;DHT22;26535;48.788;9.214;2023-05-29T09:11:02;22.10;71.90
40816;DHT22;26535;48.788;9.214;2023-05-29T09:13:28;22.30;72.50
40816;DHT22;26535;48.788;9.214;2023-05-29T09:16:00;22.30;72.20
40816;DHT22;26535;48.788;9.214;2023-05-29T09:18:31;22.40;71.80
40816;DHT22;26535;48.788;9.214;2023-05-29T09:20:58;22.50;70.50
40816;DHT22;26535;48.788;9.214;2023-05-29T09:23:25;22.50;71.20
40816;DHT22;26535;48.788;9.214;2023-05-29T09:25:52;22.50;70.60
40816;DHT22;26535;48.788;9.214;2023-05-29T09:28:21;22.80;70.30
40816;DHT22;26535;48.788;9.214;2023-05-29T09:30:53;22.90;70.10
40816;DHT22;26535;48.788;9.214;2023-05-29T09:33:19;23.00;69.50
40816;DHT22;26535;48.788;9.214;2023-05-29T09:35:49;23.10;70.00
40816;DHT22;26535;48.788;9.214;2023-05-29T09:38:19;23.20;69.20
40816;DHT22;26535;48.788;9.214;2023-05-29T09:40:45;23.20;68.90
40816;DHT22;26535;48.788;9.214;2023-05-29T09:43:12;23.30;69.80
40816;DHT22;26535;48.788;9.214;2023-05-29T09:45:40;23.50;68.50
40816;DHT22;26535;48.788;9.214;2023-05-29T09:48:22;23.70;68.60
40816;DHT22;26535;48.788;9.214;2023-05-29T09:50:48;23.80;67.80
40816;DHT22;26535;48.788;9.214;2023-05-29T09:53:21;23.80;66.70
40816;DHT22;26535;48.788;9.214;2023-05-29T09:55:50;23.80;66.70
40816;DHT22;26535;48.788;9.214;2023-05-29T09:58:19;23.90;67.20
40816;DHT22;26535;48.788;9.214;2023-05-29T10:00:46;24.00;66.90
40816;DHT22;26535;48.788;9.214;2023-05-29T10:03:13;24.00;66.90
40816;DHT22;26535;48.788;9.214;2023-05-29T10:05:43;24.10;66.80
40816;DHT22;26535;48.788;9.214;2023-05-29T10:08:12;24.20;66.40
40816;DHT22;26535;48.788;9.214;2023-05-29T10:10:42;24.30;64.60
40816;DHT22;26535;48.788;9.214;2023-05-29T10:13:11;24.40;64.90
40816;DHT22;26535;48.788;9.214;2023-05-29T10:15:37;24.50;65.20
40816;DHT22;26535;48.788;9.214;2023-05-29T10:18:11;24.70;66.00
40816;DHT22;26535;48.788;9.214;2023-05-29T10:20:39;24.90;63.90
40816;DHT22;26535;48.788;9.214;2023-05-29T10:23:07;24.90;62.50
40816;DHT22;26535;48.788;9.214;2023-05-29T10:25:36;25.00;60.60
40816;DHT22;26535;48.788;9.214;2023-05-29T10:28:02;25.10;61.20
40816;DHT22;26535;48.788;9.214;2023-05-29T10:31:08;25.30;59.80
40816;DHT22;26535;48.788;9.214;2023-05-29T10:36:19;25.60;59.30
40816;DHT22;26535;48.788;9.214;2023-05-29T10:38:48;25.50;59.20
40816;DHT22;26535;48.788;9.214;2023-05-29T10:43:59;25.60;59.00
40816;DHT22;26535;48.788;9.214;2023-05-29T10:49:20;25.60;58.20
40816;DHT22;26535;48.788;9.214;2023-05-29T10:51:46;25.70;58.40
40816;DHT22;26535;48.788;9.214;2023-05-29T10:54:12;25.80;57.30
40816;DHT22;26535;48.788;9.214;2023-05-29T10:56:44;26.00;57.80
40816;DHT22;26535;48.788;9.214;2023-05-29T10:59:10;26.10;58.00
40816;DHT22;26535;48.788;9.214;2023-05-29T11:01:39;26.10;57.30
40816;DHT22;26535;48.788;9.214;2023-05-29T11:04:25;26.30;57.00
40816;DHT22;26535;48.788;9.214;2023-05-29T11:06:52;26.30;57.10
40816;DHT22;26535;48.788;9.214;2023-05-29T11:09:36;26.20;57.40
40816;DHT22;26535;48.788;9.214;2023-05-29T11:15:08;26.50;57.40
40816;DHT22;26535;48.788;9.214;2023-05-29T11:20:06;26.90;56.20
40816;DHT22;26535;48.788;9.214;2023-05-29T11:25:07;27.20;56.10
40816;DHT22;26535;48.788;9.214;2023-05-29T11:27:33;27.40;54.80
40816;DHT22;26535;48.788;9.214;2023-05-29T11:30:00;27.40;54.70
40816;DHT22;26535;48.788;9.214;2023-05-29T11:32:27;27.80;55.20
40816;DHT22;26535;48.788;9.214;2023-05-29T11:34:56;28.00;54.20
40816;DHT22;26535;48.788;9.214;2023-05-29T11:37:24;28.40;53.20
40816;DHT22;26535;48.788;9.214;2023-05-29T11:39:51;28.90;52.60
40816;DHT22;26535;48.788;9.214;2023-05-29T11:42:17;29.50;52.30
40816;DHT22;26535;48.788;9.214;2023-05-29T11:44:42;30.30;51.50
40816;DHT22;26535;48.788;9.214;2023-05-29T11:47:08;30.70;50.30
40816;DHT22;26535;48.788;9.214;2023-05-29T11:49:37;31.20;50.10
40816;DHT22;26535;48.788;9.214;2023-05-29T11:52:07;31.80;48.90
40816;DHT22;26535;48.788;9.214;2023-05-29T11:54:33;32.40;47.10
40816;DHT22;26535;48.788;9.214;2023-05-29T11:57:00;33.40;46.80
40816;DHT22;26535;48.788;9.214;2023-05-29T11:59:30;34.00;45.80
40816;DHT22;26535;48.788;9.214;2023-05-29T12:01:56;34.70;45.50
40816;DHT22;26535;48.788;9.214;2023-05-29T12:04:22;34.60;45.00
40816;DHT22;26535;48.788;9.214;2023-05-29T12:06:48;35.10;45.60
40816;DHT22;26535;48.788;9.214;2023-05-29T12:09:27;35.60;44.20
40816;DHT22;26535;48.788;9.214;2023-05-29T12:11:54;36.10;43.80
40816;DHT22;26535;48.788;9.214;2023-05-29T12:14:20;36.60;43.20
40816;DHT22;26535;48.788;9.214;2023-05-29T12:16:46;36.10;43.80
40816;DHT22;26535;48.788;9.214;2023-05-29T12:19:12;35.90;43.60
40816;DHT22;26535;48.788;9.214;2023-05-29T12:21:41;36.10;43.00
40816;DHT22;26535;48.788;9.214;2023-05-29T12:24:08;36.00;42.20
40816;DHT22;26535;48.788;9.214;2023-05-29T12:26:34;35.20;43.40
40816;DHT22;26535;48.788;9.214;2023-05-29T12:29:03;36.20;42.60
40816;DHT22;26535;48.788;9.214;2023-05-29T12:31:30;36.90;42.60
40816;DHT22;26535;48.788;9.214;2023-05-29T12:34:08;37.80;41.40
40816;DHT22;26535;48.788;9.214;2023-05-29T12:36:34;38.40;41.30
40816;DHT22;26535;48.788;9.214;2023-05-29T12:39:06;38.20;40.40
40816;DHT22;26535;48.788;9.214;2023-05-29T12:41:34;38.80;41.00
40816;DHT22;26535;48.788;9.214;2023-05-29T12:44:02;39.70;40.60
40816;DHT22;26535;48.788;9.214;2023-05-29T12:46:35;40.10;40.00
40816;DHT22;26535;48.788;9.214;2023-05-29T12:49:12;40.30;38.60
40816;DHT22;26535;48.788;9.214;2023-05-29T12:51:41;40.80;37.90
40816;DHT22;26535;48.788;9.214;2023-05-29T12:54:07;41.00;37.10
40816;DHT22;26535;48.788;9.214;2023-05-29T12:56:33;40.90;37.20
40816;DHT22;26535;48.788;9.214;2023-05-29T12:58:58;40.60;37.40
40816;DHT22;26535;48.788;9.214;2023-05-29T13:01:24;39.60;38.90
40816;DHT22;26535;48.788;9.214;2023-05-29T13:03:50;40.20;38.10
40816;DHT22;26535;48.788;9.214;2023-05-29T13:06:15;40.60;38.30
40816;DHT22;26535;48.788;9.214;2023-05-29T13:08:42;40.50;38.30
40816;DHT22;26535;48.788;9.214;2023-05-29T13:11:08;40.60;37.80
40816;DHT22;26535;48.788;9.214;2023-05-29T13:13:34;40.40;37.80
40816;DHT22;26535;48.788;9.214;2023-05-29T13:15:59;39.70;37.70
40816;DHT22;26535;48.788;9.214;2023-05-29T13:18:25;39.10;37.90
40816;DHT22;26535;48.788;9.214;2023-05-29T13:20:51;38.60;38.30
40816;DHT22;26535;48.788;9.214;2023-05-29T13:23:16;38.30;38.50
40816;DHT22;26535;48.788;9.214;2023-05-29T13:25:42;38.50;38.80
40816;DHT22;26535;48.788;9.214;2023-05-29T13:28:08;39.00;37.60
40816;DHT22;26535;48.788;9.214;2023-05-29T13:30:34;40.20;37.40
40816;DHT22;26535;48.788;9.214;2023-05-29T13:32:59;40.90;37.20
40816;DHT22;26535;48.788;9.214;2023-05-29T13:35:25;41.90;40.30
40816;DHT22;26535;48.788;9.214;2023-05-29T13:37:51;41.30;37.40
40816;DHT22;26535;48.788;9.214;2023-05-29T13:40:17;42.30;40.90
40816;DHT22;26535;48.788;9.214;2023-05-29T13:42:43;41.50;36.40
40816;DHT22;26535;48.788;9.214;2023-05-29T13:45:08;41.70;36.80
40816;DHT22;26535;48.788;9.214;2023-05-29T13:47:35;41.10;37.20
40816;DHT22;26535;48.788;9.214;2023-05-29T13:50:01;40.70;37.60
40816;DHT22;26535;48.788;9.214;2023-05-29T13:52:27;41.20;37.90
40816;DHT22;26535;48.788;9.214;2023-05-29T13:54:53;41.90;37.10
40816;DHT22;26535;48.788;9.214;2023-05-29T13:57:18;41.80;36.90
40816;DHT22;26535;48.788;9.214;2023-05-29T13:59:44;42.00;36.80
40816;DHT22;26535;48.788;9.214;2023-05-29T14:02:11;42.40;36.70
40816;DHT22;26535;48.788;9.214;2023-05-29T14:04:37;42.80;36.50
40816;DHT22;26535;48.788;9.214;2023-05-29T14:07:04;42.80;36.30
40816;DHT22;26535;48.788;9.214;2023-05-29T14:09:29;43.50;39.90
40816;DHT22;26535;48.788;9.214;2023-05-29T14:11:57;44.10;37.60
40816;DHT22;26535;48.788;9.214;2023-05-29T14:14:24;44.10;39.30
40816;DHT22;26535;48.788;9.214;2023-05-29T14:16:50;43.60;38.80
40816;DHT22;26535;48.788;9.214;2023-05-29T14:19:17;43.90;38.50
40816;DHT22;26535;48.788;9.214;2023-05-29T14:21:43;43.70;39.00
40816;DHT22;26535;48.788;9.214;2023-05-29T14:24:08;42.50;38.70
40816;DHT22;26535;48.788;9.214;2023-05-29T14:26:34;42.30;37.90
40816;DHT22;26535;48.788;9.214;2023-05-29T14:29:01;43.00;39.00
40816;DHT22;26535;48.788;9.214;2023-05-29T14:31:27;43.00;37.40
40816;DHT22;26535;48.788;9.214;2023-05-29T14:33:52;42.90;38.60
40816;DHT22;26535;48.788;9.214;2023-05-29T14:36:18;43.20;38.10
40816;DHT22;26535;48.788;9.214;2023-05-29T14:38:44;44.10;38.10
40816;DHT22;26535;48.788;9.214;2023-05-29T14:41:11;44.60;38.70
40816;DHT22;26535;48.788;9.214;2023-05-29T14:43:42;44.50;39.30
40816;DHT22;26535;48.788;9.214;2023-05-29T14:46:08;44.60;40.10
40816;DHT22;26535;48.788;9.214;2023-05-29T14:48:34;44.50;40.50
40816;DHT22;26535;48.788;9.214;2023-05-29T14:51:00;44.70;41.60
40816;DHT22;26535;48.788;9.214;2023-05-29T14:53:26;44.30;41.90
40816;DHT22;26535;48.788;9.214;2023-05-29T14:55:52;44.10;40.80
40816;DHT22;26535;48.788;9.214;2023-05-29T14:58:18;44.70;39.60
40816;DHT22;26535;48.788;9.214;2023-05-29T15:00:43;44.10;39.40
40816;DHT22;26535;48.788;9.214;2023-05-29T15:03:09;43.40;40.00
40816;DHT22;26535;48.788;9.214;2023-05-29T15:05:36;43.20;40.20
40816;DHT22;26535;48.788;9.214;2023-05-29T15:08:02;42.70;41.00
40816;DHT22;26535;48.788;9.214;2023-05-29T15:12:54;43.00;35.50
40816;DHT22;26535;48.788;9.214;2023-05-29T15:15:24;43.10;36.50
40816;DHT22;26535;48.788;9.214;2023-05-29T15:17:50;42.40;36.70
40816;DHT22;26535;48.788;9.214;2023-05-29T15:20:22;42.60;38.00
40816;DHT22;26535;48.788;9.214;2023-05-29T15:22:48;42.70;39.70
40816;DHT22;26535;48.788;9.214;2023-05-29T15:25:15;42.90;38.80
40816;DHT22;26535;48.788;9.214;2023-05-29T15:27:41;42.90;39.70
40816;DHT22;26535;48.788;9.214;2023-05-29T15:30:12;43.60;38.60
40816;DHT22;26535;48.788;9.214;2023-05-29T15:32:39;43.70;39.20
40816;DHT22;26535;48.788;9.214;2023-05-29T15:35:09;43.30;38.40
40816;DHT22;26535;48.788;9.214;2023-05-29T15:37:35;42.60;36.80
40816;DHT22;26535;48.788;9.214;2023-05-29T15:40:01;42.70;37.20
40816;DHT22;26535;48.788;9.214;2023-05-29T15:42:27;43.00;37.10
40816;DHT22;26535;48.788;9.214;2023-05-29T15:44:52;42.00;36.90
40816;DHT22;26535;48.788;9.214;2023-05-29T15:47:18;42.20;37.10
40816;DHT22;26535;48.788;9.214;2023-05-29T15:49:44;42.40;37.10
40816;DHT22;26535;48.788;9.214;2023-05-29T15:52:09;43.10;36.60
40816;DHT22;26535;48.788;9.214;2023-05-29T15:54:35;42.40;36.40
40816;DHT22;26535;48.788;9.214;2023-05-29T15:57:01;42.20;36.90
40816;DHT22;26535;48.788;9.214;2023-05-29T15:59:31;42.10;37.50
40816;DHT22;26535;48.788;9.214;2023-05-29T16:01:57;42.20;36.80
40816;DHT22;26535;48.788;9.214;2023-05-29T16:04:23;42.10;37.40
40816;DHT22;26535;48.788;9.214;2023-05-29T16:06:49;41.70;37.70
40816;DHT22;26535;48.788;9.214;2023-05-29T16:09:15;41.40;37.00
40816;DHT22;26535;48.788;9.214;2023-05-29T16:11:41;41.10;37.00
40816;DHT22;26535;48.788;9.214;2023-05-29T16:14:07;40.70;37.50
40816;DHT22;26535;48.788;9.214;2023-05-29T16:16:33;40.60;37.30
40816;DHT22;26535;48.788;9.214;2023-05-29T16:19:00;40.80;37.20
40816;DHT22;26535;48.788;9.214;2023-05-29T16:21:26;40.20;38.70
40816;DHT22;26535;48.788;9.214;2023-05-29T16:23:52;39.50;38.20
40816;DHT22;26535;48.788;9.214;2023-05-29T16:26:24;40.00;39.50
40816;DHT22;26535;48.788;9.214;2023-05-29T16:28:55;40.50;37.60
40816;DHT22;26535;48.788;9.214;2023-05-29T16:31:21;40.60;37.40
40816;DHT22;26535;48.788;9.214;2023-05-29T16:33:47;40.80;37.20
40816;DHT22;26535;48.788;9.214;2023-05-29T16:36:12;40.20;37.50
40816;DHT22;26535;48.788;9.214;2023-05-29T16:38:38;40.50;38.20
40816;DHT22;26535;48.788;9.214;2023-05-29T16:41:04;40.40;38.20
40816;DHT22;26535;48.788;9.214;2023-05-29T16:43:30;39.40;38.20
40816;DHT22;26535;48.788;9.214;2023-05-29T16:45:57;38.70;38.70
40816;DHT22;26535;48.788;9.214;2023-05-29T16:48:23;38.00;38.40
40816;DHT22;26535;48.788;9.214;2023-05-29T16:50:49;37.30;38.50
40816;DHT22;26535;48.788;9.214;2023-05-29T16:53:16;37.40;38.70
40816;DHT22;26535;48.788;9.214;2023-05-29T16:55:41;36.80;39.00
40816;DHT22;26535;48.788;9.214;2023-05-29T16:58:07;36.80;39.60
40816;DHT22;26535;48.788;9.214;2023-05-29T17:00:33;37.20;39.50
40816;DHT22;26535;48.788;9.214;2023-05-29T17:02:58;37.50;38.60
40816;DHT22;26535;48.788;9.214;2023-05-29T17:05:24;38.30;38.90
40816;DHT22;26535;48.788;9.214;2023-05-29T17:07:50;38.50;38.40
40816;DHT22;26535;48.788;9.214;2023-05-29T17:10:16;38.50;38.40
40816;DHT22;26535;48.788;9.214;2023-05-29T17:12:42;38.30;39.60
40816;DHT22;26535;48.788;9.214;2023-05-29T17:15:10;38.00;39.40
40816;DHT22;26535;48.788;9.214;2023-05-29T17:17:36;37.90;40.40
40816;DHT22;26535;48.788;9.214;2023-05-29T17:20:02;37.60;40.40
40816;DHT22;26535;48.788;9.214;2023-05-29T17:22:29;36.90;39.30
40816;DHT22;26535;48.788;9.214;2023-05-29T17:24:55;37.20;39.00
40816;DHT22;26535;48.788;9.214;2023-05-29T17:27:22;37.50;39.10
40816;DHT22;26535;48.788;9.214;2023-05-29T17:29:47;37.50;39.00
40816;DHT22;26535;48.788;9.214;2023-05-29T17:32:13;37.50;38.80
40816;DHT22;26535;48.788;9.214;2023-05-29T17:34:39;37.90;39.30
40816;DHT22;26535;48.788;9.214;2023-05-29T17:37:05;37.40;39.20
40816;DHT22;26535;48.788;9.214;2023-05-29T17:39:33;37.00;39.20
40816;DHT22;26535;48.788;9.214;2023-05-29T17:41:59;35.90;39.90
40816;DHT22;26535;48.788;9.214;2023-05-29T17:44:25;35.40;40.60
40816;DHT22;26535;48.788;9.214;2023-05-29T17:46:51;34.80;41.00
40816;DHT22;26535;48.788;9.214;2023-05-29T17:49:17;35.20;41.30
40816;DHT22;26535;48.788;9.214;2023-05-29T17:51:43;35.40;41.00
40816;DHT22;26535;48.788;9.214;2023-05-29T17:54:09;35.00;41.10
40816;DHT22;26535;48.788;9.214;2023-05-29T17:56:38;35.00;41.90
40816;DHT22;26535;48.788;9.214;2023-05-29T17:59:04;35.10;41.10
40816;DHT22;26535;48.788;9.214;2023-05-29T18:01:30;35.20;41.30
40816;DHT22;26535;48.788;9.214;2023-05-29T18:03:56;35.40;41.20
40816;DHT22;26535;48.788;9.214;2023-05-29T18:06:22;34.90;41.10
40816;DHT22;26535;48.788;9.214;2023-05-29T18:08:47;34.40;41.20
40816;DHT22;26535;48.788;9.214;2023-05-29T18:11:14;34.30;41.90
40816;DHT22;26535;48.788;9.214;2023-05-29T18:13:40;33.90;42.00
40816;DHT22;26535;48.788;9.214;2023-05-29T18:16:06;33.60;41.90
40816;DHT22;26535;48.788;9.214;2023-05-29T18:18:37;33.00;42.00
40816;DHT22;26535;48.788;9.214;2023-05-29T18:21:03;32.00;43.50
40816;DHT22;26535;48.788;9.214;2023-05-29T18:23:30;31.10;47.50
40816;DHT22;26535;48.788;9.214;2023-05-29T18:25:55;30.10;47.10
40816;DHT22;26535;48.788;9.214;2023-05-29T18:28:21;29.10;47.30
40816;DHT22;26535;48.788;9.214;2023-05-29T18:30:47;28.20;46.20
40816;DHT22;26535;48.788;9.214;2023-05-29T18:33:14;27.60;47.50
40816;DHT22;26535;48.788;9.214;2023-05-29T18:35:40;27.10;48.30
40816;DHT22;26535;48.788;9.214;2023-05-29T18:38:07;26.70;49.20
40816;DHT22;26535;48.788;9.214;2023-05-29T18:40:37;26.50;49.50
40816;DHT22;26535;48.788;9.214;2023-05-29T18:43:03;26.30;49.60
40816;DHT22;26535;48.788;9.214;2023-05-29T18:45:28;26.00;50.50
40816;DHT22;26535;48.788;9.214;2023-05-29T18:47:55;25.80;50.60
40816;DHT22;26535;48.788;9.214;2023-05-29T18:50:21;25.60;50.60
40816;DHT22;26535;48.788;9.214;2023-05-29T18:52:47;25.50;50.60
40816;DHT22;26535;48.788;9.214;2023-05-29T18:55:12;25.30;50.90
40816;DHT22;26535;48.788;9.214;2023-05-29T18:57:38;25.00;51.20
40816;DHT22;26535;48.788;9.214;2023-05-29T19:00:05;24.80;51.30
40816;DHT22;26535;48.788;9.214;2023-05-29T19:02:31;24.60;51.60
40816;DHT22;26535;48.788;9.214;2023-05-29T19:04:58;24.40;51.80
40816;DHT22;26535;48.788;9.214;2023-05-29T19:07:24;24.30;52.30
40816;DHT22;26535;48.788;9.214;2023-05-29T19:09:50;24.30;52.60
40816;DHT22;26535;48.788;9.214;2023-05-29T19:12:15;24.20;52.80
40816;DHT22;26535;48.788;9.214;2023-05-29T19:14:41;24.10;53.30
40816;DHT22;26535;48.788;9.214;2023-05-29T19:17:07;24.00;53.30
40816;DHT22;26535;48.788;9.214;2023-05-29T19:19:35;23.80;53.60
40816;DHT22;26535;48.788;9.214;2023-05-29T19:22:07;23.60;53.80
40816;DHT22;26535;48.788;9.214;2023-05-29T19:24:32;23.50;54.30
40816;DHT22;26535;48.788;9.214;2023-05-29T19:26:58;23.40;54.90
40816;DHT22;26535;48.788;9.214;2023-05-29T19:29:25;23.40;54.80
40816;DHT22;26535;48.788;9.214;2023-05-29T19:31:51;23.20;55.60
40816;DHT22;26535;48.788;9.214;2023-05-29T19:34:17;23.20;55.30
40816;DHT22;26535;48.788;9.214;2023-05-29T19:36:42;23.00;55.70
40816;DHT22;26535;48.788;9.214;2023-05-29T19:39:11;22.90;55.70
40816;DHT22;26535;48.788;9.214;2023-05-29T19:41:37;22.90;55.80
40816;DHT22;26535;48.788;9.214;2023-05-29T19:44:04;22.70;56.00
40816;DHT22;26535;48.788;9.214;2023-05-29T19:46:32;22.50;56.70
40816;DHT22;26535;48.788;9.214;2023-05-29T19:48:58;22.40;56.60
40816;DHT22;26535;48.788;9.214;2023-05-29T19:51:24;22.30;56.70
40816;DHT22;26535;48.788;9.214;2023-05-29T19:53:50;22.30;57.20
40816;DHT22;26535;48.788;9.214;2023-05-29T19:56:15;22.20;57.30
40816;DHT22;26535;48.788;9.214;2023-05-29T19:58:41;22.20;57.40
40816;DHT22;26535;48.788;9.214;2023-05-29T20:01:07;22.10;57.60
40816;DHT22;26535;48.788;9.214;2023-05-29T20:03:32;22.00;57.40
40816;DHT22;26535;48.788;9.214;2023-05-29T20:06:00;22.00;57.80
40816;DHT22;26535;48.788;9.214;2023-05-29T20:08:28;21.90;58.20
40816;DHT22;26535;48.788;9.214;2023-05-29T20:10:54;21.80;58.30
40816;DHT22;26535;48.788;9.214;2023-05-29T20:13:20;21.70;58.50
40816;DHT22;26535;48.788;9.214;2023-05-29T20:15:46;21.60;58.90
40816;DHT22;26535;48.788;9.214;2023-05-29T20:18:12;21.50;58.80
40816;DHT22;26535;48.788;9.214;2023-05-29T20:20:37;21.40;59.30
40816;DHT22;26535;48.788;9.214;2023-05-29T20:23:03;21.20;59.30
40816;DHT22;26535;48.788;9.214;2023-05-29T20:25:29;21.20;59.90
40816;DHT22;26535;48.788;9.214;2023-05-29T20:27:56;21.10;60.30
40816;DHT22;26535;48.788;9.214;2023-05-29T20:30:22;21.00;60.50
40816;DHT22;26535;48.788;9.214;2023-05-29T20:32:47;20.90;60.70
40816;DHT22;26535;48.788;9.214;2023-05-29T20:35:13;20.90;60.50
40816;DHT22;26535;48.788;9.214;2023-05-29T20:37:42;20.80;60.60
40816;DHT22;26535;48.788;9.214;2023-05-29T20:40:08;20.80;60.90
40816;DHT22;26535;48.788;9.214;2023-05-29T20:42:35;20.70;60.70
40816;DHT22;26535;48.788;9.214;2023-05-29T20:45:03;20.80;60.80
40816;DHT22;26535;48.788;9.214;2023-05-29T20:47:31;20.70;60.70